Time;durP1;ratioP1;P1;durP2;ratioP2;P2;SDS_P1;SDS_P2;PMS_P1;PMS_P2;Temp;Humidity;BMP_temperature;BMP_pressure;BME280_temperature;BME280_humidity;BME280_pressure;Samples;Min_cycle;Max_cycle;Signal;HPM_P1;HPM_P2
2021/01/06 00:01:28;;;;;;;;;;;-0.30;99.90;;;-1.42;81.36;94994.16;10501856;28;1625;-81
2021/01/06 00:06:30;;;;;;;;;;;-0.30;99.90;;;-1.57;81.50;94994.50;10471704;28;1823;-79
2021/01/06 00:11:31;;;;;;;;;;;-0.40;99.90;;;-1.43;81.47;94992.56;10522306;28;1098;-80
2021/01/06 00:16:33;;;;;;;;;;;-0.40;99.90;;;-1.32;81.38;94991.84;10473296;28;1917;-79
2021/01/06 00:21:35;;;;;;;;;;;-0.30;99.90;;;-1.31;81.33;94992.66;10488276;28;1270;-80
2021/01/06 00:26:37;;;;;;;;;;;-0.30;99.90;;;-1.23;80.89;94984.44;10478619;28;2422;-81
2021/01/06 00:31:39;;;;;;;;;;;-0.30;99.90;;;-1.27;80.85;94988.53;10449656;28;1254;-80
2021/01/06 00:36:41;;;;;;;;;;;-0.20;99.90;;;-1.30;80.86;94983.72;10435473;28;1914;-80
2021/01/06 00:41:43;;;;;;;;;;;0.10;99.90;;;-1.39;80.67;94975.28;10453067;28;1765;-79
2021/01/06 00:46:45;;;;;;;;;;;-0.30;99.90;;;-1.42;80.96;94978.34;10454073;28;1928;-80
2021/01/06 00:51:47;;;;;;;;;;;0.10;99.90;;;-1.36;81.50;94983.56;10449506;28;1727;-80
2021/01/06 00:56:49;;;;;;;;;;;-0.30;99.90;;;-1.40;82.30;94981.56;10475746;28;1882;-80
2021/01/06 01:01:52;;;;;;;;;;;-0.30;99.90;;;-1.38;82.22;94971.63;10467449;28;1448;-80
2021/01/06 01:06:53;;;;;;;;;;;-0.30;99.90;;;-1.51;83.29;94971.75;10444572;28;1913;-80
2021/01/06 01:11:56;;;;;;;;;;;0.80;99.90;;;-1.52;84.58;94967.50;10427044;28;1713;-81
2021/01/06 01:16:57;;;;;;;;;;;-0.40;99.90;;;-1.69;84.99;94964.63;10460307;28;2098;-81
2021/01/06 01:21:59;;;;;;;;;;;-0.60;99.90;;;-1.70;85.78;94968.28;10475502;28;1955;-82
2021/01/06 01:27:03;;;;;;;;;;;-0.60;99.90;;;-1.77;85.34;94957.00;10483207;28;1803;-80
2021/01/06 01:32:05;;;;;;;;;;;-0.70;99.90;;;-1.82;85.43;94955.00;10452602;28;2336;-79
2021/01/06 01:37:07;;;;;;;;;;;-0.80;99.90;;;-1.85;86.13;94949.34;10475802;28;1983;-82
2021/01/06 01:42:09;;;;;;;;;;;-0.80;99.90;;;-1.92;86.38;94952.06;10462728;28;1976;-82
2021/01/06 01:47:10;;;;;;;;;;;-0.80;99.90;;;-1.82;85.95;94955.00;10473127;28;2070;-80
2021/01/06 01:52:12;;;;;;;;;;;-0.30;99.90;;;-1.91;85.95;94962.41;10463644;28;1998;-81
2021/01/06 01:57:14;;;;;;;;;;;-0.80;99.90;;;-1.88;86.95;94950.59;10471104;28;1913;-81
2021/01/06 02:02:16;;;;;;;;;;;-0.80;99.90;;;-1.81;86.87;94950.53;10455796;28;1330;-82
2021/01/06 02:07:18;;;;;;;;;;;-0.80;99.90;;;-1.81;87.92;94945.28;10483700;28;1812;-81
2021/01/06 02:12:19;;;;;;;;;;;-0.80;99.90;;;-1.76;88.09;94935.72;10461889;28;2034;-81
2021/01/06 02:17:21;;;;;;;;;;;-0.70;99.90;;;-1.73;88.05;94940.53;10492533;28;1988;-81
2021/01/06 02:22:23;;;;;;;;;;;-0.70;99.90;;;-1.73;88.41;94943.16;10470700;28;2084;-79
2021/01/06 02:27:25;;;;;;;;;;;-0.70;99.90;;;-1.69;88.75;94939.09;10453783;28;2244;-78
2021/01/06 02:32:26;;;;;;;;;;;-0.60;99.90;;;-1.59;89.85;94943.03;10469821;28;1284;-79
2021/01/06 02:37:28;;;;;;;;;;;0.10;99.90;;;-1.58;89.92;94934.13;10459207;28;2476;-80
2021/01/06 02:42:30;;;;;;;;;;;-0.10;99.90;;;-1.52;89.78;94933.25;10461113;28;1735;-79
2021/01/06 02:47:32;;;;;;;;;;;-0.50;99.90;;;-1.50;89.48;94941.75;10456879;28;1727;-80
2021/01/06 02:52:34;;;;;;;;;;;0.30;99.90;;;-1.51;90.28;94934.84;10458007;28;1392;-80
2021/01/06 02:57:35;;;;;;;;;;;0.10;99.90;;;-1.47;90.25;94936.00;10447854;28;2094;-78
2021/01/06 03:02:37;;;;;;;;;;;-0.40;99.90;;;-1.54;89.09;94927.38;10462983;28;2195;-80
2021/01/06 03:07:39;;;;;;;;;;;-0.50;99.90;;;-1.66;89.62;94928.09;10466260;28;2161;-82
2021/01/06 03:12:41;;;;;;;;;;;-0.60;99.90;;;-1.64;89.77;94930.53;10467294;28;2089;-79
2021/01/06 03:17:43;;;;;;;;;;;-0.70;99.90;;;-1.62;90.14;94925.84;10473191;28;1960;-82
2021/01/06 03:22:44;;;;;;;;;;;-0.60;99.90;;;-1.57;90.28;94923.34;10443744;28;2070;-80
2021/01/06 03:27:46;;;;;;;;;;;-0.10;99.90;;;-1.56;89.16;94922.31;10454682;28;1308;-79
2021/01/06 03:32:48;;;;;;;;;;;1.40;99.90;;;-1.64;88.87;94915.53;10463331;28;2118;-80
2021/01/06 03:37:50;;;;;;;;;;;-0.60;99.90;;;-1.58;89.43;94919.13;10433586;28;2133;-80
2021/01/06 03:42:52;;;;;;;;;;;-0.60;99.90;;;-1.54;90.34;94911.56;10458660;28;2144;-79
2021/01/06 03:47:54;;;;;;;;;;;-0.50;99.90;;;-1.48;90.06;94918.59;10450329;28;1945;-80
2021/01/06 03:52:58;;;;;;;;;;;-0.50;99.90;;;-1.42;89.29;94907.16;10452588;28;2099;-78
2021/01/06 03:58:00;;;;;;;;;;;-0.40;99.90;;;-1.45;89.45;94907.63;10467907;28;2007;-80
2021/01/06 04:03:04;;;;;;;;;;;-0.40;99.90;;;-1.54;88.36;94898.38;10467498;28;2071;-79
2021/01/06 04:08:07;;;;;;;;;;;-0.50;99.90;;;-1.58;88.03;94905.13;10459615;28;2169;-79
2021/01/06 04:13:09;;;;;;;;;;;-0.50;99.90;;;-1.53;88.31;94898.16;10483943;28;2164;-81
2021/01/06 04:18:10;;;;;;;;;;;-0.50;99.90;;;-1.53;88.42;94900.78;10461195;28;2462;-80
2021/01/06 04:23:12;;;;;;;;;;;-0.20;99.90;;;-1.64;88.34;94891.81;10482247;28;1983;-79
2021/01/06 04:28:14;;;;;;;;;;;-0.60;99.90;;;-1.64;88.95;94891.81;10484960;28;2421;-81
2021/01/06 04:33:16;;;;;;;;;;;-0.60;99.90;;;-1.56;88.69;94889.91;10460661;28;2141;-80
2021/01/06 04:38:18;;;;;;;;;;;-0.60;99.90;;;-1.63;87.89;94890.78;10471490;28;1967;-81
2021/01/06 04:43:19;;;;;;;;;;;-0.60;99.90;;;-1.66;88.05;94890.41;10441617;28;2049;-79
2021/01/06 04:48:21;;;;;;;;;;;-0.60;99.90;;;-1.64;88.69;94886.53;10458924;28;2419;-80
2021/01/06 04:53:23;;;;;;;;;;;-0.60;99.90;;;-1.53;88.86;94884.97;10445223;28;1834;-80
2021/01/06 04:58:25;;;;;;;;;;;-0.60;99.90;;;-1.51;88.94;94892.69;10460450;28;2128;-81
2021/01/06 05:03:26;;;;;;;;;;;-0.50;99.90;;;-1.43;88.95;94890.56;10490505;28;1934;-79
2021/01/06 05:08:28;;;;;;;;;;;-0.40;99.90;;;-1.50;89.20;94884.56;10491577;28;2291;-82
2021/01/06 05:13:30;;;;;;;;;;;-0.40;99.90;;;-1.54;89.31;94888.66;10493201;28;1956;-78
2021/01/06 05:18:32;;;;;;;;;;;-0.40;99.90;;;-1.58;88.85;94884.06;10484329;28;1975;-81
2021/01/06 05:23:36;;;;;;;;;;;-0.50;99.90;;;-1.49;90.08;94885.34;10457611;28;2016;-81
2021/01/06 05:28:38;;;;;;;;;;;-0.50;99.90;;;-1.46;89.88;94888.38;10493926;28;2545;-80
2021/01/06 05:33:40;;;;;;;;;;;0.40;99.90;;;-1.54;89.67;94886.00;10504255;28;2073;-79
2021/01/06 05:38:42;;;;;;;;;;;-0.50;99.90;;;-1.46;89.78;94892.84;10505387;28;2069;-82
2021/01/06 05:43:44;;;;;;;;;;;0.20;99.90;;;-1.41;90.47;94893.75;10485771;28;2045;-79
2021/01/06 05:48:45;;;;;;;;;;;-0.10;99.90;;;-1.43;90.12;94892.38;10500050;28;2108;-79
2021/01/06 05:53:47;;;;;;;;;;;-0.40;99.90;;;-1.48;89.58;94889.59;10502694;28;1251;-80
2021/01/06 05:58:49;;;;;;;;;;;0.30;99.90;;;-1.55;90.57;94897.56;10470244;28;2006;-80
2021/01/06 06:03:51;;;;;;;;;;;-0.50;99.90;;;-1.55;89.55;94899.41;10476412;28;2444;-80
2021/01/06 06:08:53;;;;;;;;;;;-0.50;99.90;;;-1.58;90.20;94902.50;10481088;28;2046;-79
2021/01/06 06:13:55;;;;;;;;;;;-0.50;99.90;;;-1.55;90.05;94891.50;10462949;28;2298;-80
2021/01/06 06:18:58;;;;;;;;;;;1.30;99.90;;;-1.58;90.31;94898.03;10462670;28;2175;-81
2021/01/06 06:24:00;;;;;;;;;;;-0.60;99.90;;;-1.69;89.70;94902.19;10458921;28;1952;-82
2021/01/06 06:29:04;;;;;;;;;;;0.50;99.90;;;-1.56;90.21;94910.97;10457195;28;2132;-83
2021/01/06 06:34:06;;;;;;;;;;;-0.50;99.90;;;-1.58;90.37;94903.31;10459524;28;2031;-82
2021/01/06 06:39:08;;;;;;;;;;;-0.50;99.90;;;-1.59;89.87;94906.13;10479243;28;2470;-80
2021/01/06 06:44:10;;;;;;;;;;;-0.50;99.90;;;-1.61;90.43;94909.00;10462194;28;2141;-81
2021/01/06 06:49:14;;;;;;;;;;;-0.60;99.90;;;-1.59;90.79;94912.25;10462060;28;1399;-79
2021/01/06 06:54:15;;;;;;;;;;;-0.50;99.90;;;-1.50;89.50;94920.66;10465520;28;2375;-83
2021/01/06 06:59:18;;;;;;;;;;;-0.40;99.90;;;-1.65;89.85;94921.81;10486067;28;1898;-82
2021/01/06 07:04:24;;;;;;;;;;;1.30;99.90;;;-1.61;90.15;94930.06;10469913;28;2174;-81
2021/01/06 07:14:59;;;;;;;;;;;0.50;99.90;;;-1.55;89.78;94928.41;10457987;28;1688;-80
2021/01/06 07:25:50;;;;;;;;;;;-0.60;99.90;;;-1.53;90.15;94942.16;10441009;28;2073;-81
2021/01/06 07:37:03;;;;;;;;;;;0.40;99.90;;;-1.39;89.68;94948.94;10482391;28;2081;-81
2021/01/06 07:54:14;;;;;;;;;;;1.50;99.90;;;-1.45;88.28;94962.97;10354008;28;1978;-83
2021/01/06 08:10:57;;;;;;;;;;;-0.40;99.90;;;-1.39;88.28;94975.28;10475195;28;2060;-87
2021/01/06 08:15:59;;;;;;;;;;;0.40;99.90;;;-1.28;87.94;94977.19;10467860;28;2006;-85
2021/01/06 08:21:04;;;;;;;;;;;1.50;99.90;;;-1.29;88.33;94975.56;10452776;28;2041;-84
2021/01/06 08:26:06;;;;;;;;;;;1.30;99.90;;;-1.19;88.17;94978.53;10469599;28;2160;-86
2021/01/06 08:31:12;;;;;;;;;;;-0.20;99.90;;;-1.07;87.19;94975.16;10474645;28;2097;-88
2021/01/06 08:36:16;;;;;;;;;;;1.70;99.90;;;-0.99;87.28;94974.84;10471299;28;2217;-85
2021/01/06 08:41:18;;;;;;;;;;;0.10;99.90;;;-0.94;85.95;94982.91;10459244;28;2017;-87
2021/01/06 08:46:22;;;;;;;;;;;0.00;99.90;;;-0.67;85.99;94981.56;10456380;28;2288;-84
2021/01/06 08:51:24;;;;;;;;;;;1.20;99.90;;;-0.49;85.86;94977.28;10449187;28;1999;-87
2021/01/06 08:56:38;;;;;;;;;;;0.40;99.90;;;-0.50;85.31;94983.59;10474158;28;1956;-85
2021/01/06 09:01:40;;;;;;;;;;;1.40;99.90;;;-0.44;85.35;94982.69;10477075;28;2033;-86
2021/01/06 09:06:42;;;;;;;;;;;0.60;99.90;;;-0.40;84.57;94987.28;10483481;28;1865;-86
2021/01/06 09:11:44;;;;;;;;;;;1.70;99.90;;;-0.36;84.68;94993.72;10480350;28;1239;-84
2021/01/06 09:16:56;;;;;;;;;;;0.80;99.90;;;-0.34;84.52;94996.13;10487016;28;1887;-84
2021/01/06 09:21:58;;;;;;;;;;;0.80;99.90;;;-0.17;84.69;95004.25;10466428;28;1787;-85
2021/01/06 09:32:54;;;;;;;;;;;0.80;99.90;;;-0.17;84.82;95009.53;10464287;28;2025;-85
2021/01/06 09:37:56;;;;;;;;;;;2.40;99.90;;;-0.34;84.84;95019.91;10457677;28;2010;-84
2021/01/06 09:43:00;;;;;;;;;;;2.40;99.90;;;-0.44;85.61;95030.22;10445289;28;1819;-83
2021/01/06 09:48:03;;;;;;;;;;;0.70;99.90;;;-0.42;85.91;95028.94;10457000;28;1979;-85
2021/01/06 09:53:05;;;;;;;;;;;1.60;99.90;;;-0.28;85.34;95027.75;10466938;28;1939;-84
2021/01/06 09:58:06;;;;;;;;;;;0.60;99.90;;;-0.33;85.65;95032.06;10442329;28;1914;-84
2021/01/06 10:03:08;;;;;;;;;;;0.70;99.90;;;-0.26;85.62;95024.88;10467253;28;1911;-81
2021/01/06 10:08:10;;;;;;;;;;;0.70;99.90;;;-0.34;85.26;95019.91;10495799;28;1903;-82
2021/01/06 10:13:12;;;;;;;;;;;0.70;99.90;;;-0.25;84.93;95021.22;10511933;28;1751;-86
2021/01/06 10:18:14;;;;;;;;;;;1.40;99.90;;;-0.14;84.98;95015.16;10510937;28;1915;-81
2021/01/06 10:23:15;;;;;;;;;;;0.90;99.90;;;-0.42;83.83;95007.03;10469700;28;1986;-86
2021/01/06 10:28:17;;;;;;;;;;;0.80;99.90;;;-0.17;85.30;95004.25;10474466;28;1967;-88
2021/01/06 10:33:19;;;;;;;;;;;0.80;99.90;;;-0.16;84.89;95008.50;10465409;28;2015;-84
2021/01/06 10:38:21;;;;;;;;;;;1.10;99.90;;;0.03;84.55;95009.22;10451866;28;2025;-84
2021/01/06 10:43:23;;;;;;;;;;;1.00;99.90;;;-0.02;84.33;95002.78;10502311;28;1951;-84
2021/01/06 10:48:25;;;;;;;;;;;1.00;99.90;;;-0.01;83.57;94999.09;10516626;28;1999;-85
2021/01/06 10:53:27;;;;;;;;;;;1.00;99.90;;;0.15;84.24;95002.94;10495183;28;1979;-85
2021/01/06 10:58:29;;;;;;;;;;;1.10;99.90;;;0.04;83.26;95001.06;10489528;28;1992;-84
2021/01/06 11:03:31;;;;;;;;;;;1.20;99.90;;;0.10;83.50;95012.56;10495531;28;1954;-84
2021/01/06 11:08:33;;;;;;;;;;;1.20;99.90;;;0.31;83.31;95011.22;10467222;28;1777;-85
2021/01/06 11:13:35;;;;;;;;;;;2.10;99.90;;;0.28;83.27;95009.84;10453481;28;1918;-84
2021/01/06 11:18:37;;;;;;;;;;;1.80;99.90;;;0.11;83.31;95003.63;10491767;28;1958;-83
2021/01/06 11:23:40;;;;;;;;;;;1.60;99.90;;;0.10;82.84;95000.16;10471560;28;1220;-83
2021/01/06 11:28:42;;;;;;;;;;;1.20;99.90;;;0.23;83.38;94999.16;10447003;28;1894;-85
2021/01/06 11:33:44;;;;;;;;;;;1.20;99.90;;;0.23;82.81;94999.97;10436357;28;1629;-85
2021/01/06 11:38:48;;;;;;;;;;;3.30;99.90;;;0.49;82.88;95001.34;10465014;28;2007;-85
2021/01/06 11:43:53;;;;;;;;;;;1.30;99.90;;;0.50;82.75;95000.31;10473456;28;1715;-85
2021/01/06 11:48:56;;;;;;;;;;;2.20;99.90;;;0.58;82.36;94995.75;10453470;28;1972;-83
2021/01/06 11:53:58;;;;;;;;;;;1.50;99.90;;;0.59;82.38;94989.41;10475058;28;2315;-84
2021/01/06 11:59:00;;;;;;;;;;;2.90;99.90;;;0.37;81.66;94974.09;10466459;28;1962;-84
2021/01/06 12:04:04;;;;;;;;;;;1.40;99.90;;;0.40;82.25;94981.59;10455302;28;1971;-84
2021/01/06 12:09:07;;;;;;;;;;;1.40;99.90;;;0.44;82.74;94984.56;10489186;28;1995;-82
2021/01/06 12:14:09;;;;;;;;;;;1.60;99.90;;;0.41;81.91;94982.41;10490626;28;2000;-84
2021/01/06 12:19:11;;;;;;;;;;;3.00;99.90;;;0.41;81.90;94990.31;10460014;28;1914;-82
2021/01/06 12:24:13;;;;;;;;;;;1.40;99.90;;;0.73;81.67;94982.84;10471175;28;1966;-83
2021/01/06 12:29:15;;;;;;;;;;;3.20;99.90;;;0.54;82.60;94979.53;10472005;28;1974;-83
2021/01/06 12:34:23;;;;;;;;;;;1.70;99.90;;;0.29;82.54;94982.38;10456053;28;1604;-86
2021/01/06 12:39:25;;;;;;;;;;;2.40;99.90;;;0.27;82.56;94979.16;10469785;28;1947;-83
2021/01/06 12:44:30;;;;;;;;;;;2.30;99.90;;;0.36;83.17;94988.34;10445715;28;1979;-85
2021/01/06 12:49:32;;;;;;;;;;;2.90;99.90;;;0.01;84.11;94984.88;10456220;28;2002;-84
2021/01/06 12:54:35;;;;;;;;;;;1.80;99.90;;;0.17;83.65;94990.28;10445868;28;1894;-85
2021/01/06 12:59:37;;;;;;;;;;;1.10;99.90;;;0.25;83.66;94991.78;10476327;28;2012;-83
2021/01/06 13:04:42;;;;;;;;;;;2.20;99.90;;;0.18;84.19;94991.09;10450432;28;1987;-85
2021/01/06 13:09:44;;;;;;;;;;;2.20;99.90;;;0.29;84.17;95006.16;10467130;28;2060;-85
2021/01/06 13:14:46;;;;;;;;;;;2.90;99.90;;;0.49;83.57;95008.50;10477404;28;1339;-85
2021/01/06 13:19:48;;;;;;;;;;;1.20;99.90;;;0.43;83.41;95006.75;10456441;28;1906;-84
2021/01/06 13:24:50;;;;;;;;;;;3.00;99.90;;;0.62;82.67;95002.97;10490870;28;1630;-84
2021/01/06 13:30:03;;;;;;;;;;;2.60;99.90;;;0.37;83.53;95010.31;10478550;28;1895;-83
2021/01/06 13:35:09;;;;;;;;;;;2.10;99.90;;;0.48;84.04;95014.81;10472255;28;1760;-86
2021/01/06 13:40:25;;;;;;;;;;;1.70;99.90;;;0.50;82.95;95010.09;10484453;28;1965;-86
2021/01/06 13:45:28;;;;;;;;;;;3.50;99.90;;;0.50;83.56;95010.91;10468244;28;1394;-84
2021/01/06 13:50:39;;;;;;;;;;;2.70;99.90;;;0.58;83.47;95011.63;10489215;28;2027;-86
2021/01/06 13:55:44;;;;;;;;;;;2.70;99.90;;;0.60;83.80;95012.97;10473768;28;1936;-85
2021/01/06 14:00:47;;;;;;;;;;;2.70;99.90;;;0.28;83.94;95023.06;10483677;28;1934;-82
2021/01/06 14:05:48;;;;;;;;;;;1.30;99.90;;;0.25;83.92;95024.34;10451125;28;1768;-86
2021/01/06 14:10:50;;;;;;;;;;;1.30;99.90;;;0.33;85.31;95031.13;10460817;28;2069;-85
2021/01/06 14:15:54;;;;;;;;;;;1.20;99.90;;;0.17;84.89;95027.28;10474970;28;1547;-84
2021/01/06 14:20:56;;;;;;;;;;;2.70;99.90;;;0.19;85.35;95035.00;10463127;28;1977;-84
2021/01/06 14:25:58;;;;;;;;;;;1.20;99.90;;;-0.04;85.57;95036.56;10461942;28;1969;-85
2021/01/06 14:31:00;;;;;;;;;;;1.00;99.90;;;-0.17;85.46;95036.75;10445658;28;1686;-85
2021/01/06 14:36:04;;;;;;;;;;;0.90;99.90;;;-0.26;86.68;95043.34;10464000;28;2040;-86
2021/01/06 14:41:06;;;;;;;;;;;2.30;99.90;;;-0.50;86.77;95052.22;10462077;28;1992;-85
2021/01/06 14:46:08;;;;;;;;;;;0.70;99.90;;;-0.50;87.30;95060.16;10470700;28;1955;-87
2021/01/06 14:51:12;;;;;;;;;;;0.90;99.90;;;-0.59;87.60;95056.97;10488950;28;1982;-86
2021/01/06 14:56:15;;;;;;;;;;;0.60;99.90;;;-0.68;87.80;95064.41;10461445;28;2029;-87
2021/01/06 15:01:18;;;;;;;;;;;0.40;99.90;;;-0.57;88.87;95068.94;10456938;28;2031;-87
2021/01/06 15:06:20;;;;;;;;;;;0.40;99.90;;;-0.66;88.16;95061.53;10472457;28;1674;-87
2021/01/06 15:11:22;;;;;;;;;;;1.90;99.90;;;-0.59;89.45;95076.25;10466083;28;1887;-84
2021/01/06 15:16:24;;;;;;;;;;;0.40;99.90;;;-0.60;89.41;95071.22;10455653;28;2057;-87
2021/01/06 15:21:26;;;;;;;;;;;0.40;99.90;;;-0.63;88.51;95067.19;10469564;28;1891;-86
2021/01/06 15:26:28;;;;;;;;;;;1.40;99.90;;;-0.66;89.00;95072.91;10478042;28;1721;-83
2021/01/06 15:31:30;;;;;;;;;;;0.40;99.90;;;-0.65;88.42;95074.50;10487093;28;1907;-85
2021/01/06 15:36:33;;;;;;;;;;;0.40;99.90;;;-0.75;88.63;95082.16;10487545;28;1735;-85
2021/01/06 15:41:37;;;;;;;;;;;1.50;99.90;;;-0.80;88.27;95078.56;10464268;28;2067;-87
2021/01/06 15:46:40;;;;;;;;;;;0.20;99.90;;;-0.84;88.99;95078.97;10484595;28;1964;-86
2021/01/06 15:51:42;;;;;;;;;;;2.00;99.90;;;-0.90;88.72;95090.41;10484657;28;1885;-85
2021/01/06 15:56:44;;;;;;;;;;;0.90;99.90;;;-0.89;89.21;95086.75;10467850;28;1899;-86
2021/01/06 16:01:46;;;;;;;;;;;2.00;99.90;;;-0.87;89.03;95091.81;10473560;28;2003;-84
2021/01/06 16:06:48;;;;;;;;;;;0.10;99.90;;;-0.82;89.92;95091.97;10493198;28;1351;-86
2021/01/06 16:11:50;;;;;;;;;;;3.20;99.90;;;-0.80;90.06;95104.94;10469778;28;1632;-85
2021/01/06 16:16:54;;;;;;;;;;;0.20;99.90;;;-0.95;89.57;95107.94;10475209;28;1891;-86
2021/01/06 16:21:56;;;;;;;;;;;1.60;99.90;;;-0.94;89.96;95104.28;10487336;28;1486;-85
2021/01/06 16:27:00;;;;;;;;;;;0.10;99.90;;;-0.93;89.24;95105.88;10454584;28;1340;-87
2021/01/06 16:32:05;;;;;;;;;;;0.00;99.90;;;-0.98;89.77;95113.63;10476348;28;1554;-84
2021/01/06 16:37:08;;;;;;;;;;;2.00;99.90;;;-1.01;89.35;95117.53;10455004;28;1898;-84
2021/01/06 16:42:10;;;;;;;;;;;1.30;99.90;;;-0.99;89.52;95117.31;10467841;28;1279;-86
2021/01/06 16:47:12;;;;;;;;;;;1.30;99.90;;;-1.05;89.71;95134.00;10459068;28;1592;-86
2021/01/06 16:52:14;;;;;;;;;;;1.40;99.90;;;-1.05;89.01;95131.34;10490573;28;1334;-85
2021/01/06 16:57:17;;;;;;;;;;;1.30;99.90;;;-1.04;89.78;95139.03;10505257;28;1910;-84
2021/01/06 17:02:20;;;;;;;;;;;0.00;99.90;;;-1.03;89.15;95140.66;10478894;28;1281;-85
2021/01/06 17:07:22;;;;;;;;;;;1.00;99.90;;;-0.99;89.47;95133.13;10476109;28;1623;-85
2021/01/06 17:12:24;;;;;;;;;;;0.00;99.90;;;-1.01;89.75;95135.19;10493408;28;1621;-86
2021/01/06 17:17:26;;;;;;;;;;;0.10;99.90;;;-1.03;89.63;95137.22;10532101;28;1921;-86
2021/01/06 17:22:28;;;;;;;;;;;0.00;99.90;;;-0.99;89.75;95146.31;10542644;28;1206;-88
2021/01/06 17:27:33;;;;;;;;;;;0.00;99.90;;;-0.97;89.52;95146.91;10504304;28;1272;-86
2021/01/06 17:32:35;;;;;;;;;;;0.70;99.90;;;-0.97;89.96;95152.19;10474963;28;1685;-86
2021/01/06 17:37:37;;;;;;;;;;;1.40;99.90;;;-1.03;89.20;95153.84;10457398;28;1981;-88
2021/01/06 17:42:39;;;;;;;;;;;0.00;99.90;;;-1.03;89.34;95160.94;10494528;28;1964;-87
2021/01/06 17:47:42;;;;;;;;;;;1.70;99.90;;;-1.02;89.80;95159.94;10479504;28;1589;-88
2021/01/06 17:52:44;;;;;;;;;;;1.50;99.90;;;-1.03;89.75;95158.31;10456588;28;1323;-87
2021/01/06 17:57:47;;;;;;;;;;;0.60;99.90;;;-0.98;88.86;95161.13;10473711;28;1910;-88
2021/01/06 18:02:50;;;;;;;;;;;-0.10;99.90;;;-1.05;88.65;95163.81;10473835;28;1693;-87
2021/01/06 18:07:52;;;;;;;;;;;0.80;99.90;;;-1.03;87.62;95176.78;10480519;28;1312;-86
2021/01/06 18:12:54;;;;;;;;;;;1.70;99.90;;;-1.09;88.95;95176.63;10467457;28;1535;-86
2021/01/06 18:17:56;;;;;;;;;;;1.50;99.90;;;-1.05;87.72;95192.03;10478234;28;1882;-87
2021/01/06 18:22:58;;;;;;;;;;;1.00;99.90;;;-0.99;88.12;95191.16;10484570;28;1308;-86
2021/01/06 18:28:00;;;;;;;;;;;-0.10;99.90;;;-1.02;87.72;95196.84;10481354;28;1369;-87
2021/01/06 18:33:08;;;;;;;;;;;0.50;99.90;;;-1.08;88.29;95198.56;10475365;28;1868;-87
2021/01/06 18:38:15;;;;;;;;;;;2.10;99.90;;;-1.04;87.95;95196.28;10479950;28;1981;-87
2021/01/06 18:43:21;;;;;;;;;;;1.60;99.90;;;-0.94;87.47;95207.16;10470941;28;1939;-86
2021/01/06 18:48:24;;;;;;;;;;;0.70;99.90;;;-0.97;88.29;95210.22;10466768;28;1934;-84
2021/01/06 18:53:30;;;;;;;;;;;0.10;99.90;;;-0.95;88.48;95208.19;10455563;28;1704;-85
2021/01/06 18:58:36;;;;;;;;;;;0.90;99.90;;;-0.97;87.13;95210.22;10456173;28;2182;-85
2021/01/06 19:03:59;;;;;;;;;;;1.90;99.90;;;-1.05;87.01;95206.03;10478699;28;2061;-87
2021/01/06 19:09:04;;;;;;;;;;;1.30;99.90;;;-1.00;87.37;95210.66;10456971;28;1398;-86
2021/01/06 19:14:06;;;;;;;;;;;0.50;99.90;;;-1.05;87.23;95213.13;10472856;28;1345;-86
2021/01/06 19:19:08;;;;;;;;;;;-0.10;99.90;;;-1.05;88.29;95219.22;10458148;28;2012;-87
2021/01/06 19:24:10;;;;;;;;;;;0.50;99.90;;;-1.06;88.01;95220.25;10483616;28;2033;-87
2021/01/06 19:29:12;;;;;;;;;;;1.40;99.90;;;-1.03;87.73;95226.91;10478604;28;1669;-85
2021/01/06 19:34:14;;;;;;;;;;;0.00;99.90;;;-1.08;88.20;95222.28;10480353;28;1243;-84
2021/01/06 19:39:17;;;;;;;;;;;1.40;99.90;;;-1.06;88.05;95232.63;10522388;28;1958;-85
2021/01/06 19:44:19;;;;;;;;;;;0.00;99.90;;;-1.11;88.04;95226.16;10500952;28;1425;-86
2021/01/06 19:49:23;;;;;;;;;;;0.80;99.90;;;-1.10;88.25;95227.75;10479767;28;1272;-84
2021/01/06 19:54:24;;;;;;;;;;;0.20;99.90;;;-1.14;87.80;95229.22;10495307;28;1661;-86
2021/01/06 19:59:26;;;;;;;;;;;-0.10;99.90;;;-1.17;88.21;95236.75;10467876;28;1894;-85
2021/01/06 20:04:29;;;;;;;;;;;-0.10;99.90;;;-1.14;88.38;95231.88;10466207;28;1932;-86
2021/01/06 20:09:32;;;;;;;;;;;0.80;99.90;;;-1.09;88.72;95234.66;10501702;28;2057;-84
2021/01/06 20:14:34;;;;;;;;;;;1.40;99.90;;;-1.14;87.63;95231.88;10450166;28;1708;-87
2021/01/06 20:19:36;;;;;;;;;;;2.30;99.90;;;-1.16;87.86;95235.72;10485094;28;1977;-87
2021/01/06 20:24:47;;;;;;;;;;;1.50;99.90;;;-1.10;88.70;95238.31;10442380;28;1301;-85
2021/01/06 20:29:50;;;;;;;;;;;-0.20;99.90;;;-1.07;88.25;95238.94;10466492;28;1728;-88
2021/01/06 20:34:57;;;;;;;;;;;-0.20;99.90;;;-1.14;88.47;95226.59;10483076;28;1700;-87
2021/01/06 20:39:58;;;;;;;;;;;0.30;99.90;;;-1.05;88.69;95228.97;10449449;28;1971;-82
2021/01/06 20:45:00;;;;;;;;;;;1.70;99.90;;;-1.11;88.45;95220.88;10443517;28;2063;-85
2021/01/06 20:50:04;;;;;;;;;;;0.00;99.90;;;-1.13;88.19;95230.03;10427197;28;1696;-81
2021/01/06 20:55:09;;;;;;;;;;;-0.10;99.90;;;-1.11;87.82;95235.88;10436356;28;1629;-80
2021/01/06 21:00:15;;;;;;;;;;;1.50;99.90;;;-1.12;88.10;95243.00;10439255;28;1904;-82
2021/01/06 21:05:18;;;;;;;;;;;0.00;99.90;;;-1.14;88.14;95242.41;10457016;28;1923;-82
2021/01/06 21:10:20;;;;;;;;;;;-0.10;99.90;;;-1.22;88.60;95240.00;10449065;28;2111;-81
2021/01/06 21:15:23;;;;;;;;;;;-0.10;99.90;;;-1.25;88.55;95243.09;10456764;28;2134;-81
2021/01/06 21:20:25;;;;;;;;;;;-0.10;99.90;;;-1.34;88.56;95246.19;10448117;28;1997;-84
2021/01/06 21:25:27;;;;;;;;;;;1.40;99.90;;;-1.29;88.53;95244.53;10461614;28;1966;-82
2021/01/06 21:30:28;;;;;;;;;;;0.80;99.90;;;-1.32;89.21;95244.97;10439605;28;1652;-84
2021/01/06 21:35:30;;;;;;;;;;;-0.20;99.90;;;-1.21;88.92;95251.38;10460065;28;1982;-86
2021/01/06 21:40:32;;;;;;;;;;;-0.20;99.90;;;-1.19;89.06;95239.59;10471606;28;1987;-82
2021/01/06 21:45:34;;;;;;;;;;;1.90;99.90;;;-1.16;88.58;95249.72;10459679;28;2026;-85
2021/01/06 21:50:36;;;;;;;;;;;-0.10;99.90;;;-1.10;88.43;95248.88;10470246;28;1861;-83
2021/01/06 21:55:38;;;;;;;;;;;-0.10;99.90;;;-1.15;88.78;95258.44;10492354;28;2030;-83
2021/01/06 22:00:39;;;;;;;;;;;0.90;99.90;;;-1.13;88.70;95254.56;10484127;28;1913;-83
2021/01/06 22:05:41;;;;;;;;;;;-0.10;99.90;;;-1.14;88.00;95249.53;10491014;28;1990;-79
2021/01/06 22:10:44;;;;;;;;;;;2.00;99.90;;;-1.12;88.35;95256.19;10474810;28;1618;-80
2021/01/06 22:15:46;;;;;;;;;;;-0.10;99.90;;;-1.04;88.35;95259.59;10474359;28;1360;-82
2021/01/06 22:20:48;;;;;;;;;;;0.00;99.90;;;-1.03;88.31;95269.13;10496021;28;1890;-83
2021/01/06 22:25:50;;;;;;;;;;;0.00;99.90;;;-1.01;88.47;95267.91;10498401;28;1716;-83
2021/01/06 22:30:52;;;;;;;;;;;1.20;99.90;;;-0.99;88.14;95257.13;10460567;28;2002;-83
2021/01/06 22:35:54;;;;;;;;;;;0.10;99.90;;;-0.94;88.13;95259.94;10438887;28;1833;-83
2021/01/06 22:40:56;;;;;;;;;;;0.10;99.90;;;-0.91;87.59;95268.22;10466545;28;1886;-81
2021/01/06 22:45:57;;;;;;;;;;;0.90;99.90;;;-0.98;88.03;95256.09;10466517;28;1934;-83
2021/01/06 22:50:59;;;;;;;;;;;1.30;99.90;;;-0.96;87.85;95262.75;10469110;28;2023;-84
2021/01/06 22:56:03;;;;;;;;;;;1.30;99.90;;;-0.96;88.01;95251.41;10475166;28;1959;-82
2021/01/06 23:01:13;;;;;;;;;;;0.10;99.90;;;-0.91;88.48;95254.22;10450245;28;2045;-80
2021/01/06 23:06:15;;;;;;;;;;;0.10;99.90;;;-0.99;88.29;95243.94;10450859;28;1989;-84
2021/01/06 23:11:17;;;;;;;;;;;0.10;99.90;;;-1.06;87.59;95254.53;10468062;28;1775;-82
2021/01/06 23:16:19;;;;;;;;;;;0.00;99.90;;;-1.14;88.00;95258.25;10466528;28;1927;-83
2021/01/06 23:21:21;;;;;;;;;;;0.30;99.90;;;-1.11;88.64;95263.06;10454150;28;1968;-83
2021/01/06 23:26:22;;;;;;;;;;;0.60;99.90;;;-1.22;88.73;95255.84;10457111;28;1971;-83
2021/01/06 23:31:24;;;;;;;;;;;0.00;99.90;;;-1.23;88.89;95259.50;10453947;28;1991;-84
2021/01/06 23:36:26;;;;;;;;;;;-0.10;99.90;;;-1.27;89.20;95268.03;10465085;28;1974;-83
2021/01/06 23:41:27;;;;;;;;;;;-0.10;99.90;;;-1.28;88.62;95264.59;10455957;28;2062;-83
2021/01/06 23:46:29;;;;;;;;;;;-0.20;99.90;;;-1.26;88.92;95270.50;10473146;28;1590;-83
2021/01/06 23:51:31;;;;;;;;;;;-0.20;99.90;;;-1.23;88.68;95282.44;10471260;28;1956;-83
2021/01/06 23:56:33;;;;;;;;;;;-0.20;99.90;;;-1.15;88.61;95274.25;10477067;28;1883;-84
